sensor_id;sensor_type;location;lat;lon;timestamp;P1;durP1;ratioP1;P2;durP2;ratioP2
43620;SDS011;29213;50.770;7.298;2022-08-21T00:02:02;6.95;;;3.03;;
43620;SDS011;29213;50.770;7.298;2022-08-21T00:04:29;5.43;;;3.13;;
43620;SDS011;29213;50.770;7.298;2022-08-21T00:06:54;6.43;;;3.30;;
43620;SDS011;29213;50.770;7.298;2022-08-21T00:09:20;5.13;;;2.95;;
43620;SDS011;29213;50.770;7.298;2022-08-21T00:11:46;5.30;;;3.10;;
43620;SDS011;29213;50.770;7.298;2022-08-21T00:14:13;5.20;;;2.72;;
43620;SDS011;29213;50.770;7.298;2022-08-21T00:16:39;5.60;;;3.00;;
43620;SDS011;29213;50.770;7.298;2022-08-21T00:19:06;6.82;;;3.30;;
43620;SDS011;29213;50.770;7.298;2022-08-21T00:21:33;4.75;;;2.92;;
43620;SDS011;29213;50.770;7.298;2022-08-21T00:24:00;4.90;;;3.30;;
43620;SDS011;29213;50.770;7.298;2022-08-21T00:26:26;5.80;;;3.33;;
43620;SDS011;29213;50.770;7.298;2022-08-21T00:28:51;6.65;;;3.47;;
43620;SDS011;29213;50.770;7.298;2022-08-21T00:31:17;5.22;;;3.20;;
43620;SDS011;29213;50.770;7.298;2022-08-21T00:33:43;4.90;;;3.00;;
43620;SDS011;29213;50.770;7.298;2022-08-21T00:36:09;5.28;;;3.15;;
43620;SDS011;29213;50.770;7.298;2022-08-21T00:38:35;5.00;;;2.95;;
43620;SDS011;29213;50.770;7.298;2022-08-21T00:41:04;5.05;;;3.38;;
43620;SDS011;29213;50.770;7.298;2022-08-21T00:45:58;6.13;;;3.30;;
43620;SDS011;29213;50.770;7.298;2022-08-21T00:48:24;5.03;;;3.08;;
43620;SDS011;29213;50.770;7.298;2022-08-21T00:50:52;6.45;;;3.20;;
43620;SDS011;29213;50.770;7.298;2022-08-21T00:53:23;7.78;;;3.33;;
43620;SDS011;29213;50.770;7.298;2022-08-21T00:55:50;5.70;;;2.95;;
43620;SDS011;29213;50.770;7.298;2022-08-21T00:58:16;4.90;;;3.20;;
43620;SDS011;29213;50.770;7.298;2022-08-21T01:00:44;5.95;;;3.35;;
43620;SDS011;29213;50.770;7.298;2022-08-21T01:03:12;5.75;;;3.22;;
43620;SDS011;29213;50.770;7.298;2022-08-21T01:05:40;6.25;;;3.47;;
43620;SDS011;29213;50.770;7.298;2022-08-21T01:08:07;6.45;;;3.50;;
43620;SDS011;29213;50.770;7.298;2022-08-21T01:10:34;6.13;;;3.50;;
43620;SDS011;29213;50.770;7.298;2022-08-21T01:13:00;6.78;;;3.47;;
43620;SDS011;29213;50.770;7.298;2022-08-21T01:15:29;5.20;;;3.28;;
43620;SDS011;29213;50.770;7.298;2022-08-21T01:17:57;5.88;;;3.30;;
43620;SDS011;29213;50.770;7.298;2022-08-21T01:20:23;6.05;;;3.53;;
43620;SDS011;29213;50.770;7.298;2022-08-21T01:22:48;5.22;;;3.38;;
43620;SDS011;29213;50.770;7.298;2022-08-21T01:25:14;5.32;;;3.40;;
43620;SDS011;29213;50.770;7.298;2022-08-21T01:27:42;4.97;;;3.08;;
43620;SDS011;29213;50.770;7.298;2022-08-21T01:30:10;6.00;;;3.60;;
43620;SDS011;29213;50.770;7.298;2022-08-21T01:32:40;6.10;;;3.38;;
43620;SDS011;29213;50.770;7.298;2022-08-21T01:35:06;7.30;;;3.85;;
43620;SDS011;29213;50.770;7.298;2022-08-21T01:37:32;5.60;;;3.50;;
43620;SDS011;29213;50.770;7.298;2022-08-21T01:39:58;5.43;;;3.30;;
43620;SDS011;29213;50.770;7.298;2022-08-21T01:42:24;5.28;;;3.28;;
43620;SDS011;29213;50.770;7.298;2022-08-21T01:44:49;6.47;;;4.03;;
43620;SDS011;29213;50.770;7.298;2022-08-21T01:47:15;5.82;;;3.67;;
43620;SDS011;29213;50.770;7.298;2022-08-21T01:49:41;7.40;;;3.40;;
43620;SDS011;29213;50.770;7.298;2022-08-21T01:52:07;6.30;;;4.10;;
43620;SDS011;29213;50.770;7.298;2022-08-21T01:54:34;5.43;;;3.42;;
43620;SDS011;29213;50.770;7.298;2022-08-21T01:57:00;6.15;;;3.60;;
43620;SDS011;29213;50.770;7.298;2022-08-21T01:59:26;5.55;;;3.70;;
43620;SDS011;29213;50.770;7.298;2022-08-21T02:01:52;6.10;;;3.40;;
43620;SDS011;29213;50.770;7.298;2022-08-21T02:04:19;5.85;;;3.42;;
43620;SDS011;29213;50.770;7.298;2022-08-21T02:06:45;6.63;;;3.50;;
43620;SDS011;29213;50.770;7.298;2022-08-21T02:09:11;5.35;;;3.08;;
43620;SDS011;29213;50.770;7.298;2022-08-21T02:11:37;6.28;;;3.85;;
43620;SDS011;29213;50.770;7.298;2022-08-21T02:14:07;5.22;;;3.63;;
43620;SDS011;29213;50.770;7.298;2022-08-21T02:16:33;5.95;;;3.70;;
43620;SDS011;29213;50.770;7.298;2022-08-21T02:18:59;6.82;;;3.90;;
43620;SDS011;29213;50.770;7.298;2022-08-21T02:21:24;6.15;;;3.33;;
43620;SDS011;29213;50.770;7.298;2022-08-21T02:23:50;6.43;;;3.90;;
43620;SDS011;29213;50.770;7.298;2022-08-21T02:26:15;6.25;;;3.70;;
43620;SDS011;29213;50.770;7.298;2022-08-21T02:28:41;5.30;;;3.60;;
43620;SDS011;29213;50.770;7.298;2022-08-21T02:31:07;7.13;;;3.42;;
43620;SDS011;29213;50.770;7.298;2022-08-21T02:33:32;5.45;;;3.60;;
43620;SDS011;29213;50.770;7.298;2022-08-21T02:35:58;5.88;;;3.50;;
43620;SDS011;29213;50.770;7.298;2022-08-21T02:38:26;6.32;;;3.70;;
43620;SDS011;29213;50.770;7.298;2022-08-21T02:40:53;5.60;;;3.63;;
43620;SDS011;29213;50.770;7.298;2022-08-21T02:43:20;6.63;;;3.60;;
43620;SDS011;29213;50.770;7.298;2022-08-21T02:45:47;6.30;;;4.00;;
43620;SDS011;29213;50.770;7.298;2022-08-21T02:48:15;6.95;;;3.72;;
43620;SDS011;29213;50.770;7.298;2022-08-21T02:50:44;6.33;;;3.73;;
43620;SDS011;29213;50.770;7.298;2022-08-21T02:53:13;7.47;;;3.70;;
43620;SDS011;29213;50.770;7.298;2022-08-21T02:55:42;5.40;;;3.60;;
43620;SDS011;29213;50.770;7.298;2022-08-21T02:58:12;7.47;;;4.00;;
43620;SDS011;29213;50.770;7.298;2022-08-21T03:00:40;5.60;;;3.78;;
43620;SDS011;29213;50.770;7.298;2022-08-21T03:03:05;6.70;;;3.85;;
43620;SDS011;29213;50.770;7.298;2022-08-21T03:05:31;6.57;;;4.18;;
43620;SDS011;29213;50.770;7.298;2022-08-21T03:07:59;6.53;;;4.35;;
43620;SDS011;29213;50.770;7.298;2022-08-21T03:10:26;6.75;;;4.07;;
43620;SDS011;29213;50.770;7.298;2022-08-21T03:12:53;6.72;;;3.85;;
43620;SDS011;29213;50.770;7.298;2022-08-21T03:15:20;5.60;;;3.60;;
43620;SDS011;29213;50.770;7.298;2022-08-21T03:17:47;6.53;;;4.22;;
43620;SDS011;29213;50.770;7.298;2022-08-21T03:20:14;6.03;;;3.83;;
43620;SDS011;29213;50.770;7.298;2022-08-21T03:22:42;6.55;;;3.80;;
43620;SDS011;29213;50.770;7.298;2022-08-21T03:25:08;6.75;;;4.28;;
43620;SDS011;29213;50.770;7.298;2022-08-21T03:27:35;6.97;;;4.35;;
43620;SDS011;29213;50.770;7.298;2022-08-21T03:30:02;6.07;;;4.10;;
43620;SDS011;29213;50.770;7.298;2022-08-21T03:32:29;6.43;;;4.35;;
43620;SDS011;29213;50.770;7.298;2022-08-21T03:34:56;5.63;;;3.85;;
43620;SDS011;29213;50.770;7.298;2022-08-21T03:37:22;5.35;;;3.95;;
43620;SDS011;29213;50.770;7.298;2022-08-21T03:39:49;6.78;;;4.05;;
43620;SDS011;29213;50.770;7.298;2022-08-21T03:42:15;6.47;;;4.07;;
43620;SDS011;29213;50.770;7.298;2022-08-21T03:44:40;6.10;;;3.67;;
43620;SDS011;29213;50.770;7.298;2022-08-21T03:47:06;5.28;;;3.83;;
43620;SDS011;29213;50.770;7.298;2022-08-21T03:49:31;5.88;;;3.90;;
43620;SDS011;29213;50.770;7.298;2022-08-21T03:51:58;6.30;;;4.25;;
43620;SDS011;29213;50.770;7.298;2022-08-21T03:54:24;5.97;;;4.07;;
43620;SDS011;29213;50.770;7.298;2022-08-21T03:56:50;6.43;;;4.57;;
43620;SDS011;29213;50.770;7.298;2022-08-21T03:59:15;7.30;;;4.10;;
43620;SDS011;29213;50.770;7.298;2022-08-21T04:01:50;5.22;;;3.75;;
43620;SDS011;29213;50.770;7.298;2022-08-21T04:04:20;5.50;;;4.00;;
43620;SDS011;29213;50.770;7.298;2022-08-21T04:06:46;6.20;;;3.85;;
43620;SDS011;29213;50.770;7.298;2022-08-21T04:09:12;6.80;;;4.10;;
43620;SDS011;29213;50.770;7.298;2022-08-21T04:11:37;6.32;;;4.05;;
43620;SDS011;29213;50.770;7.298;2022-08-21T04:14:03;6.70;;;4.20;;
43620;SDS011;29213;50.770;7.298;2022-08-21T04:16:29;7.05;;;4.25;;
43620;SDS011;29213;50.770;7.298;2022-08-21T04:18:56;6.20;;;4.03;;
43620;SDS011;29213;50.770;7.298;2022-08-21T04:21:21;6.80;;;4.30;;
43620;SDS011;29213;50.770;7.298;2022-08-21T04:23:48;6.68;;;4.68;;
43620;SDS011;29213;50.770;7.298;2022-08-21T04:26:13;5.70;;;4.07;;
43620;SDS011;29213;50.770;7.298;2022-08-21T04:28:38;5.85;;;4.40;;
43620;SDS011;29213;50.770;7.298;2022-08-21T04:31:04;6.03;;;4.07;;
43620;SDS011;29213;50.770;7.298;2022-08-21T04:33:30;5.85;;;4.15;;
43620;SDS011;29213;50.770;7.298;2022-08-21T04:35:55;5.65;;;3.90;;
43620;SDS011;29213;50.770;7.298;2022-08-21T04:38:21;6.38;;;4.30;;
43620;SDS011;29213;50.770;7.298;2022-08-21T04:40:47;6.93;;;4.68;;
43620;SDS011;29213;50.770;7.298;2022-08-21T04:43:13;6.35;;;4.50;;
43620;SDS011;29213;50.770;7.298;2022-08-21T04:45:41;6.75;;;4.20;;
43620;SDS011;29213;50.770;7.298;2022-08-21T04:48:11;7.45;;;4.30;;
43620;SDS011;29213;50.770;7.298;2022-08-21T04:50:40;6.45;;;4.10;;
43620;SDS011;29213;50.770;7.298;2022-08-21T04:53:10;6.22;;;4.15;;
43620;SDS011;29213;50.770;7.298;2022-08-21T04:55:39;5.85;;;4.03;;
43620;SDS011;29213;50.770;7.298;2022-08-21T04:58:07;5.90;;;3.85;;
43620;SDS011;29213;50.770;7.298;2022-08-21T05:00:36;6.35;;;4.40;;
43620;SDS011;29213;50.770;7.298;2022-08-21T05:03:03;6.25;;;4.35;;
43620;SDS011;29213;50.770;7.298;2022-08-21T05:05:30;5.40;;;3.83;;
43620;SDS011;29213;50.770;7.298;2022-08-21T05:07:55;5.65;;;4.20;;
43620;SDS011;29213;50.770;7.298;2022-08-21T05:10:24;5.97;;;4.10;;
43620;SDS011;29213;50.770;7.298;2022-08-21T05:12:50;6.00;;;4.40;;
43620;SDS011;29213;50.770;7.298;2022-08-21T05:15:15;7.55;;;4.32;;
43620;SDS011;29213;50.770;7.298;2022-08-21T05:17:42;7.28;;;4.32;;
43620;SDS011;29213;50.770;7.298;2022-08-21T05:20:09;6.18;;;4.00;;
43620;SDS011;29213;50.770;7.298;2022-08-21T05:22:35;7.03;;;4.25;;
43620;SDS011;29213;50.770;7.298;2022-08-21T05:25:01;6.57;;;4.60;;
43620;SDS011;29213;50.770;7.298;2022-08-21T05:27:27;6.25;;;3.95;;
43620;SDS011;29213;50.770;7.298;2022-08-21T05:29:55;6.25;;;4.30;;
43620;SDS011;29213;50.770;7.298;2022-08-21T05:32:21;6.97;;;4.45;;
43620;SDS011;29213;50.770;7.298;2022-08-21T05:34:47;5.40;;;4.00;;
43620;SDS011;29213;50.770;7.298;2022-08-21T05:37:13;5.50;;;3.83;;
43620;SDS011;29213;50.770;7.298;2022-08-21T05:39:38;6.60;;;4.05;;
43620;SDS011;29213;50.770;7.298;2022-08-21T05:42:04;6.72;;;4.53;;
43620;SDS011;29213;50.770;7.298;2022-08-21T05:44:29;6.72;;;4.25;;
43620;SDS011;29213;50.770;7.298;2022-08-21T05:47:01;7.07;;;3.42;;
43620;SDS011;29213;50.770;7.298;2022-08-21T05:49:28;6.38;;;3.30;;
43620;SDS011;29213;50.770;7.298;2022-08-21T05:51:53;6.57;;;4.00;;
43620;SDS011;29213;50.770;7.298;2022-08-21T05:54:18;6.40;;;4.55;;
43620;SDS011;29213;50.770;7.298;2022-08-21T05:56:44;9.10;;;4.75;;
43620;SDS011;29213;50.770;7.298;2022-08-21T05:59:09;9.80;;;4.55;;
43620;SDS011;29213;50.770;7.298;2022-08-21T06:01:35;6.00;;;4.32;;
43620;SDS011;29213;50.770;7.298;2022-08-21T06:04:01;6.22;;;4.10;;
43620;SDS011;29213;50.770;7.298;2022-08-21T06:06:29;7.07;;;4.68;;
43620;SDS011;29213;50.770;7.298;2022-08-21T06:09:00;6.38;;;4.47;;
43620;SDS011;29213;50.770;7.298;2022-08-21T06:11:25;7.57;;;4.90;;
43620;SDS011;29213;50.770;7.298;2022-08-21T06:13:51;8.65;;;4.95;;
43620;SDS011;29213;50.770;7.298;2022-08-21T06:16:16;7.78;;;5.00;;
43620;SDS011;29213;50.770;7.298;2022-08-21T06:18:43;6.43;;;4.10;;
43620;SDS011;29213;50.770;7.298;2022-08-21T06:21:09;5.63;;;4.28;;
43620;SDS011;29213;50.770;7.298;2022-08-21T06:23:36;6.68;;;4.35;;
43620;SDS011;29213;50.770;7.298;2022-08-21T06:26:03;6.60;;;4.32;;
43620;SDS011;29213;50.770;7.298;2022-08-21T06:28:30;7.13;;;4.53;;
43620;SDS011;29213;50.770;7.298;2022-08-21T06:30:55;7.43;;;4.53;;
43620;SDS011;29213;50.770;7.298;2022-08-21T06:33:21;6.80;;;4.95;;
43620;SDS011;29213;50.770;7.298;2022-08-21T06:35:46;7.95;;;4.70;;
43620;SDS011;29213;50.770;7.298;2022-08-21T06:38:12;8.50;;;5.78;;
43620;SDS011;29213;50.770;7.298;2022-08-21T06:40:38;8.10;;;5.80;;
43620;SDS011;29213;50.770;7.298;2022-08-21T06:43:11;9.93;;;6.00;;
43620;SDS011;29213;50.770;7.298;2022-08-21T06:45:38;9.13;;;5.90;;
43620;SDS011;29213;50.770;7.298;2022-08-21T06:48:04;8.05;;;4.97;;
43620;SDS011;29213;50.770;7.298;2022-08-21T06:50:30;7.28;;;4.82;;
43620;SDS011;29213;50.770;7.298;2022-08-21T06:53:00;7.35;;;4.40;;
43620;SDS011;29213;50.770;7.298;2022-08-21T06:55:30;7.72;;;5.00;;
43620;SDS011;29213;50.770;7.298;2022-08-21T06:57:55;6.70;;;4.35;;
43620;SDS011;29213;50.770;7.298;2022-08-21T07:00:21;7.40;;;4.97;;
43620;SDS011;29213;50.770;7.298;2022-08-21T07:02:49;7.43;;;4.35;;
43620;SDS011;29213;50.770;7.298;2022-08-21T07:05:15;7.78;;;4.82;;
43620;SDS011;29213;50.770;7.298;2022-08-21T07:07:40;6.25;;;4.47;;
43620;SDS011;29213;50.770;7.298;2022-08-21T07:10:06;8.23;;;4.50;;
43620;SDS011;29213;50.770;7.298;2022-08-21T07:12:31;7.18;;;4.15;;
43620;SDS011;29213;50.770;7.298;2022-08-21T07:14:57;7.15;;;4.68;;
43620;SDS011;29213;50.770;7.298;2022-08-21T07:17:23;7.28;;;4.50;;
43620;SDS011;29213;50.770;7.298;2022-08-21T07:19:49;8.90;;;4.80;;
43620;SDS011;29213;50.770;7.298;2022-08-21T07:22:17;6.97;;;4.57;;
43620;SDS011;29213;50.770;7.298;2022-08-21T07:24:45;7.68;;;4.68;;
43620;SDS011;29213;50.770;7.298;2022-08-21T07:27:11;7.00;;;4.32;;
43620;SDS011;29213;50.770;7.298;2022-08-21T07:29:37;7.97;;;4.32;;
43620;SDS011;29213;50.770;7.298;2022-08-21T07:32:02;6.10;;;4.30;;
43620;SDS011;29213;50.770;7.298;2022-08-21T07:34:29;8.05;;;4.20;;
43620;SDS011;29213;50.770;7.298;2022-08-21T07:36:56;7.13;;;4.03;;
43620;SDS011;29213;50.770;7.298;2022-08-21T07:39:22;7.45;;;4.07;;
43620;SDS011;29213;50.770;7.298;2022-08-21T07:41:47;5.93;;;3.80;;
43620;SDS011;29213;50.770;7.298;2022-08-21T07:44:12;6.75;;;4.65;;
43620;SDS011;29213;50.770;7.298;2022-08-21T07:46:40;6.38;;;4.47;;
43620;SDS011;29213;50.770;7.298;2022-08-21T07:49:05;7.07;;;4.32;;
43620;SDS011;29213;50.770;7.298;2022-08-21T07:51:31;8.25;;;4.97;;
43620;SDS011;29213;50.770;7.298;2022-08-21T07:53:58;8.20;;;4.60;;
43620;SDS011;29213;50.770;7.298;2022-08-21T07:56:25;9.07;;;4.50;;
43620;SDS011;29213;50.770;7.298;2022-08-21T07:58:54;7.47;;;4.25;;
43620;SDS011;29213;50.770;7.298;2022-08-21T08:01:23;5.93;;;3.70;;
43620;SDS011;29213;50.770;7.298;2022-08-21T08:04:04;6.03;;;3.65;;
43620;SDS011;29213;50.770;7.298;2022-08-21T08:06:29;7.40;;;3.80;;
43620;SDS011;29213;50.770;7.298;2022-08-21T08:08:55;5.93;;;3.50;;
43620;SDS011;29213;50.770;7.298;2022-08-21T08:11:21;5.32;;;3.05;;
43620;SDS011;29213;50.770;7.298;2022-08-21T08:13:47;6.18;;;2.78;;
43620;SDS011;29213;50.770;7.298;2022-08-21T08:16:17;5.40;;;2.80;;
43620;SDS011;29213;50.770;7.298;2022-08-21T08:18:43;7.43;;;3.22;;
43620;SDS011;29213;50.770;7.298;2022-08-21T08:21:10;6.88;;;3.60;;
43620;SDS011;29213;50.770;7.298;2022-08-21T08:23:37;5.78;;;2.97;;
43620;SDS011;29213;50.770;7.298;2022-08-21T08:26:05;7.50;;;3.22;;
43620;SDS011;29213;50.770;7.298;2022-08-21T08:28:34;5.82;;;3.00;;
43620;SDS011;29213;50.770;7.298;2022-08-21T08:30:59;5.75;;;2.45;;
43620;SDS011;29213;50.770;7.298;2022-08-21T08:33:25;6.25;;;2.75;;
43620;SDS011;29213;50.770;7.298;2022-08-21T08:35:51;5.35;;;2.95;;
43620;SDS011;29213;50.770;7.298;2022-08-21T08:38:18;6.43;;;3.03;;
43620;SDS011;29213;50.770;7.298;2022-08-21T08:40:47;5.95;;;3.03;;
43620;SDS011;29213;50.770;7.298;2022-08-21T08:43:20;5.90;;;2.90;;
43620;SDS011;29213;50.770;7.298;2022-08-21T08:45:49;5.43;;;2.50;;
43620;SDS011;29213;50.770;7.298;2022-08-21T08:51:29;8.70;;;4.07;;
43620;SDS011;29213;50.770;7.298;2022-08-21T08:54:04;5.32;;;2.70;;
43620;SDS011;29213;50.770;7.298;2022-08-21T08:56:35;6.20;;;2.58;;
43620;SDS011;29213;50.770;7.298;2022-08-21T08:59:02;4.72;;;2.50;;
43620;SDS011;29213;50.770;7.298;2022-08-21T09:01:33;6.50;;;4.25;;
43620;SDS011;29213;50.770;7.298;2022-08-21T09:03:59;6.20;;;3.20;;
43620;SDS011;29213;50.770;7.298;2022-08-21T09:09:18;7.00;;;3.00;;
43620;SDS011;29213;50.770;7.298;2022-08-21T09:12:04;4.95;;;2.50;;
43620;SDS011;29213;50.770;7.298;2022-08-21T09:14:45;5.15;;;2.58;;
43620;SDS011;29213;50.770;7.298;2022-08-21T09:23:05;5.38;;;2.40;;
43620;SDS011;29213;50.770;7.298;2022-08-21T09:25:45;4.65;;;2.45;;
43620;SDS011;29213;50.770;7.298;2022-08-21T09:28:40;7.45;;;2.90;;
43620;SDS011;29213;50.770;7.298;2022-08-21T09:31:07;4.78;;;2.28;;
43620;SDS011;29213;50.770;7.298;2022-08-21T09:33:39;5.93;;;3.00;;
43620;SDS011;29213;50.770;7.298;2022-08-21T09:39:39;6.28;;;2.70;;
43620;SDS011;29213;50.770;7.298;2022-08-21T09:42:29;5.03;;;2.50;;
43620;SDS011;29213;50.770;7.298;2022-08-21T09:45:20;5.97;;;2.30;;
43620;SDS011;29213;50.770;7.298;2022-08-21T09:47:45;5.93;;;2.70;;
43620;SDS011;29213;50.770;7.298;2022-08-21T09:50:22;5.63;;;2.42;;
43620;SDS011;29213;50.770;7.298;2022-08-21T09:53:04;5.03;;;2.00;;
43620;SDS011;29213;50.770;7.298;2022-08-21T09:56:18;5.88;;;2.50;;
43620;SDS011;29213;50.770;7.298;2022-08-21T09:59:31;5.20;;;2.30;;
43620;SDS011;29213;50.770;7.298;2022-08-21T10:02:02;4.25;;;1.80;;
43620;SDS011;29213;50.770;7.298;2022-08-21T10:04:50;3.88;;;1.85;;
43620;SDS011;29213;50.770;7.298;2022-08-21T10:07:22;5.20;;;2.20;;
43620;SDS011;29213;50.770;7.298;2022-08-21T10:09:59;5.38;;;3.50;;
43620;SDS011;29213;50.770;7.298;2022-08-21T10:12:42;6.78;;;2.60;;
43620;SDS011;29213;50.770;7.298;2022-08-21T10:15:18;6.25;;;1.80;;
43620;SDS011;29213;50.770;7.298;2022-08-21T10:20:29;5.22;;;2.08;;
43620;SDS011;29213;50.770;7.298;2022-08-21T10:26:35;4.93;;;1.88;;
43620;SDS011;29213;50.770;7.298;2022-08-21T10:32:34;5.15;;;2.25;;
43620;SDS011;29213;50.770;7.298;2022-08-21T10:38:01;4.78;;;1.70;;
43620;SDS011;29213;50.770;7.298;2022-08-21T10:40:37;3.97;;;1.70;;
43620;SDS011;29213;50.770;7.298;2022-08-21T10:43:21;4.22;;;1.58;;
43620;SDS011;29213;50.770;7.298;2022-08-21T10:48:37;4.43;;;1.85;;
43620;SDS011;29213;50.770;7.298;2022-08-21T10:51:13;5.13;;;1.92;;
43620;SDS011;29213;50.770;7.298;2022-08-21T10:56:43;4.23;;;1.47;;
43620;SDS011;29213;50.770;7.298;2022-08-21T10:59:33;3.80;;;1.88;;
43620;SDS011;29213;50.770;7.298;2022-08-21T11:08:43;3.20;;;1.63;;
43620;SDS011;29213;50.770;7.298;2022-08-21T11:14:03;5.18;;;1.60;;
43620;SDS011;29213;50.770;7.298;2022-08-21T11:16:49;3.22;;;1.52;;
43620;SDS011;29213;50.770;7.298;2022-08-21T11:25:27;3.30;;;1.30;;
43620;SDS011;29213;50.770;7.298;2022-08-21T11:28:09;5.32;;;1.67;;
43620;SDS011;29213;50.770;7.298;2022-08-21T11:36:12;4.10;;;1.60;;
43620;SDS011;29213;50.770;7.298;2022-08-21T11:38:54;4.35;;;1.55;;
43620;SDS011;29213;50.770;7.298;2022-08-21T11:41:43;4.68;;;1.40;;
43620;SDS011;29213;50.770;7.298;2022-08-21T11:47:06;3.75;;;1.60;;
43620;SDS011;29213;50.770;7.298;2022-08-21T11:52:35;4.10;;;1.40;;
43620;SDS011;29213;50.770;7.298;2022-08-21T11:55:19;3.15;;;1.30;;
43620;SDS011;29213;50.770;7.298;2022-08-21T12:03:08;3.25;;;1.30;;
43620;SDS011;29213;50.770;7.298;2022-08-21T12:05:39;3.70;;;1.35;;
43620;SDS011;29213;50.770;7.298;2022-08-21T12:10:38;4.13;;;1.53;;
43620;SDS011;29213;50.770;7.298;2022-08-21T12:15:37;4.80;;;1.70;;
43620;SDS011;29213;50.770;7.298;2022-08-21T12:18:04;3.33;;;1.25;;
43620;SDS011;29213;50.770;7.298;2022-08-21T12:29:32;3.97;;;1.27;;
43620;SDS011;29213;50.770;7.298;2022-08-21T12:32:03;4.28;;;1.52;;
43620;SDS011;29213;50.770;7.298;2022-08-21T12:37:10;3.50;;;1.40;;
43620;SDS011;29213;50.770;7.298;2022-08-21T12:39:46;3.53;;;1.30;;
43620;SDS011;29213;50.770;7.298;2022-08-21T12:42:19;3.40;;;1.45;;
43620;SDS011;29213;50.770;7.298;2022-08-21T12:44:53;4.22;;;1.30;;
43620;SDS011;29213;50.770;7.298;2022-08-21T12:47:24;3.17;;;1.30;;
43620;SDS011;29213;50.770;7.298;2022-08-21T12:50:05;4.88;;;1.50;;
43620;SDS011;29213;50.770;7.298;2022-08-21T12:52:40;3.05;;;1.30;;
43620;SDS011;29213;50.770;7.298;2022-08-21T12:55:29;4.05;;;1.60;;
43620;SDS011;29213;50.770;7.298;2022-08-21T12:57:58;3.90;;;1.40;;
43620;SDS011;29213;50.770;7.298;2022-08-21T13:00:25;3.95;;;1.30;;
43620;SDS011;29213;50.770;7.298;2022-08-21T13:02:53;3.33;;;1.33;;
43620;SDS011;29213;50.770;7.298;2022-08-21T13:05:23;3.08;;;1.20;;
43620;SDS011;29213;50.770;7.298;2022-08-21T13:07:54;3.58;;;1.20;;
43620;SDS011;29213;50.770;7.298;2022-08-21T13:10:26;3.70;;;1.35;;
43620;SDS011;29213;50.770;7.298;2022-08-21T13:12:55;5.53;;;1.60;;
43620;SDS011;29213;50.770;7.298;2022-08-21T13:15:31;4.32;;;1.60;;
43620;SDS011;29213;50.770;7.298;2022-08-21T13:18:00;3.92;;;1.30;;
43620;SDS011;29213;50.770;7.298;2022-08-21T13:20:32;4.13;;;1.02;;
43620;SDS011;29213;50.770;7.298;2022-08-21T13:23:19;1.98;;;0.95;;
43620;SDS011;29213;50.770;7.298;2022-08-21T13:25:50;3.08;;;1.20;;
43620;SDS011;29213;50.770;7.298;2022-08-21T13:28:15;3.50;;;1.20;;
43620;SDS011;29213;50.770;7.298;2022-08-21T13:30:43;4.25;;;1.60;;
43620;SDS011;29213;50.770;7.298;2022-08-21T13:33:15;3.67;;;1.50;;
43620;SDS011;29213;50.770;7.298;2022-08-21T13:38:27;3.03;;;1.10;;
43620;SDS011;29213;50.770;7.298;2022-08-21T13:40:58;7.57;;;1.40;;
43620;SDS011;29213;50.770;7.298;2022-08-21T13:43:34;2.97;;;1.13;;
43620;SDS011;29213;50.770;7.298;2022-08-21T13:46:02;4.50;;;1.35;;
43620;SDS011;29213;50.770;7.298;2022-08-21T13:48:34;3.05;;;1.20;;
43620;SDS011;29213;50.770;7.298;2022-08-21T13:51:02;3.72;;;1.45;;
43620;SDS011;29213;50.770;7.298;2022-08-21T13:53:30;2.50;;;0.93;;
43620;SDS011;29213;50.770;7.298;2022-08-21T13:56:21;3.00;;;1.20;;
43620;SDS011;29213;50.770;7.298;2022-08-21T13:58:54;3.15;;;1.20;;
43620;SDS011;29213;50.770;7.298;2022-08-21T14:04:03;3.65;;;1.48;;
43620;SDS011;29213;50.770;7.298;2022-08-21T14:06:36;4.40;;;1.42;;
43620;SDS011;29213;50.770;7.298;2022-08-21T14:12:01;3.55;;;1.42;;
43620;SDS011;29213;50.770;7.298;2022-08-21T14:14:38;3.65;;;1.15;;
43620;SDS011;29213;50.770;7.298;2022-08-21T14:17:07;2.92;;;1.20;;
43620;SDS011;29213;50.770;7.298;2022-08-21T14:19:40;4.53;;;1.27;;
43620;SDS011;29213;50.770;7.298;2022-08-21T14:24:59;4.10;;;1.20;;
43620;SDS011;29213;50.770;7.298;2022-08-21T14:27:27;3.30;;;1.30;;
43620;SDS011;29213;50.770;7.298;2022-08-21T14:29:57;2.80;;;1.02;;
43620;SDS011;29213;50.770;7.298;2022-08-21T14:32:27;3.80;;;1.10;;
43620;SDS011;29213;50.770;7.298;2022-08-21T14:34:55;3.22;;;1.17;;
43620;SDS011;29213;50.770;7.298;2022-08-21T14:37:22;2.22;;;0.93;;
43620;SDS011;29213;50.770;7.298;2022-08-21T14:39:47;2.63;;;1.00;;
43620;SDS011;29213;50.770;7.298;2022-08-21T14:42:15;2.50;;;1.02;;
43620;SDS011;29213;50.770;7.298;2022-08-21T14:44:41;3.03;;;1.10;;
43620;SDS011;29213;50.770;7.298;2022-08-21T14:47:07;2.67;;;1.20;;
43620;SDS011;29213;50.770;7.298;2022-08-21T14:49:34;4.05;;;1.30;;
43620;SDS011;29213;50.770;7.298;2022-08-21T14:52:02;3.40;;;1.30;;
43620;SDS011;29213;50.770;7.298;2022-08-21T14:54:29;3.15;;;1.23;;
43620;SDS011;29213;50.770;7.298;2022-08-21T14:57:06;3.63;;;1.30;;
43620;SDS011;29213;50.770;7.298;2022-08-21T14:59:34;3.30;;;1.20;;
43620;SDS011;29213;50.770;7.298;2022-08-21T15:02:04;2.95;;;1.08;;
43620;SDS011;29213;50.770;7.298;2022-08-21T15:04:31;4.88;;;1.42;;
43620;SDS011;29213;50.770;7.298;2022-08-21T15:06:57;5.38;;;1.20;;
43620;SDS011;29213;50.770;7.298;2022-08-21T15:09:23;3.58;;;1.15;;
43620;SDS011;29213;50.770;7.298;2022-08-21T15:11:49;2.95;;;1.27;;
43620;SDS011;29213;50.770;7.298;2022-08-21T15:14:25;4.43;;;1.30;;
43620;SDS011;29213;50.770;7.298;2022-08-21T15:16:52;5.53;;;1.30;;
43620;SDS011;29213;50.770;7.298;2022-08-21T15:19:18;3.88;;;1.30;;
43620;SDS011;29213;50.770;7.298;2022-08-21T15:21:44;2.85;;;1.05;;
43620;SDS011;29213;50.770;7.298;2022-08-21T15:24:10;2.80;;;1.05;;
43620;SDS011;29213;50.770;7.298;2022-08-21T15:26:35;3.05;;;1.08;;
43620;SDS011;29213;50.770;7.298;2022-08-21T15:29:01;3.33;;;1.35;;
43620;SDS011;29213;50.770;7.298;2022-08-21T15:31:27;4.22;;;1.20;;
43620;SDS011;29213;50.770;7.298;2022-08-21T15:33:53;4.00;;;1.25;;
43620;SDS011;29213;50.770;7.298;2022-08-21T15:36:19;4.13;;;1.48;;
43620;SDS011;29213;50.770;7.298;2022-08-21T15:39:11;2.55;;;1.02;;
43620;SDS011;29213;50.770;7.298;2022-08-21T15:41:40;3.47;;;1.30;;
43620;SDS011;29213;50.770;7.298;2022-08-21T15:44:10;4.57;;;1.48;;
43620;SDS011;29213;50.770;7.298;2022-08-21T15:46:59;3.50;;;1.20;;
43620;SDS011;29213;50.770;7.298;2022-08-21T15:49:25;5.07;;;1.48;;
43620;SDS011;29213;50.770;7.298;2022-08-21T15:51:50;2.83;;;1.30;;
43620;SDS011;29213;50.770;7.298;2022-08-21T15:54:16;3.47;;;1.30;;
43620;SDS011;29213;50.770;7.298;2022-08-21T15:56:43;2.60;;;1.00;;
43620;SDS011;29213;50.770;7.298;2022-08-21T15:59:15;3.40;;;1.13;;
43620;SDS011;29213;50.770;7.298;2022-08-21T16:01:47;4.75;;;1.45;;
43620;SDS011;29213;50.770;7.298;2022-08-21T16:04:34;4.03;;;1.60;;
43620;SDS011;29213;50.770;7.298;2022-08-21T16:07:03;3.50;;;1.10;;
43620;SDS011;29213;50.770;7.298;2022-08-21T16:09:28;4.03;;;1.20;;
43620;SDS011;29213;50.770;7.298;2022-08-21T16:11:54;3.55;;;1.40;;
43620;SDS011;29213;50.770;7.298;2022-08-21T16:14:19;3.95;;;1.52;;
43620;SDS011;29213;50.770;7.298;2022-08-21T16:16:45;4.18;;;1.50;;
43620;SDS011;29213;50.770;7.298;2022-08-21T16:19:11;3.53;;;1.40;;
43620;SDS011;29213;50.770;7.298;2022-08-21T16:21:37;4.30;;;1.92;;
43620;SDS011;29213;50.770;7.298;2022-08-21T16:24:03;4.13;;;1.60;;
43620;SDS011;29213;50.770;7.298;2022-08-21T16:26:29;4.75;;;1.85;;
43620;SDS011;29213;50.770;7.298;2022-08-21T16:28:56;5.72;;;1.50;;
43620;SDS011;29213;50.770;7.298;2022-08-21T16:31:30;3.75;;;1.50;;
43620;SDS011;29213;50.770;7.298;2022-08-21T16:33:56;3.40;;;1.45;;
43620;SDS011;29213;50.770;7.298;2022-08-21T16:36:22;4.13;;;1.40;;